Terminal Aerodrome Forecast
Issued by NWS Wichita, KS

Home | Current Version | Previous Version | Text Only | Print | Product List | Glossary On
Versions: 1 2 3 4 5 6 7 8 9 10 11 12 13 14 15 16 17 18 19 20 21 22 23
000
FTUS43 KICT 180642 AAA
TAFICT
TAF AMD
KICT 180642Z 1807/1906 14005KT P6SM VCTS SCT050CB OVC150
      TEMPO 1807/1810 VRB15G25KT -TSRA OVC035CB
     FM181200 15007KT P6SM SCT020 BKN050
     FM181600 16015G24KT P6SM SCT030 BKN050
     FM190100 15006KT P6SM VCTS SCT020 BKN035CB=

USA.gov is the U.S. government's official web portal to all federal, state and local government web resources and services.